Time;durP1;ratioP1;P1;durP2;ratioP2;P2;SDS_P1;SDS_P2;PMS_P1;PMS_P2;Temp;Humidity;BMP_temperature;BMP_pressure;BME280_temperature;BME280_humidity;BME280_pressure;Samples;Min_cycle;Max_cycle;Signal;HPM_P1;HPM_P2
2021/04/26 00:01:12;;;;;;;6.35;0.65;;;2.40;83.50;;;;;;5020825;28;20079;-74
2021/04/26 00:03:38;;;;;;;5.50;1.27;;;2.40;82.80;;;;;;5021140;28;20026;-74
2021/04/26 00:06:04;;;;;;;1.02;0.88;;;2.40;83.60;;;;;;5027856;28;20373;-74
2021/04/26 00:08:29;;;;;;;2.85;1.00;;;2.40;84.80;;;;;;5019405;28;20037;-74
2021/04/26 00:10:55;;;;;;;1.10;0.70;;;2.30;84.70;;;;;;5022359;28;20026;-74
2021/04/26 00:13:20;;;;;;;1.95;0.70;;;2.20;84.50;;;;;;5019261;28;20021;-74
2021/04/26 00:15:46;;;;;;;0.45;0.35;;;2.30;84.70;;;;;;5023630;28;20033;-74
2021/04/26 00:18:12;;;;;;;3.67;0.70;;;2.20;85.00;;;;;;5024376;28;20029;-74
2021/04/26 00:20:39;;;;;;;0.95;0.60;;;2.20;84.90;;;;;;5025431;28;20046;-74
2021/04/26 00:23:04;;;;;;;1.58;0.40;;;2.20;85.10;;;;;;5020060;28;20026;-73
2021/04/26 00:25:30;;;;;;;5.60;1.15;;;2.10;85.90;;;;;;5019597;28;20029;-74
2021/04/26 00:27:56;;;;;;;4.47;1.15;;;2.10;85.30;;;;;;5021353;28;20030;-74
2021/04/26 00:30:23;;;;;;;5.32;0.95;;;2.10;85.20;;;;;;5029970;28;20400;-74
2021/04/26 00:32:50;;;;;;;2.42;0.90;;;2.00;86.20;;;;;;5021135;28;20494;-74
2021/04/26 00:35:17;;;;;;;2.92;0.73;;;2.10;86.40;;;;;;5020148;28;20038;-73
2021/04/26 00:37:43;;;;;;;0.55;0.55;;;2.10;87.00;;;;;;5021612;28;20025;-74
2021/04/26 00:40:13;;;;;;;1.73;0.70;;;2.00;87.70;;;;;;4999160;28;20120;-73
2021/04/26 00:42:39;;;;;;;2.08;0.80;;;2.00;87.50;;;;;;5024052;28;20446;-74
2021/04/26 00:45:10;;;;;;;0.98;0.70;;;1.90;87.50;;;;;;5017820;28;20423;-74
2021/04/26 00:47:37;;;;;;;;;;;1.90;89.10;;;;;;5017567;28;20108;-74
2021/04/26 00:50:05;;;;;;;0.68;0.68;;;1.90;88.00;;;;;;5011011;28;19952;-74
2021/04/26 00:52:31;;;;;;;1.38;0.63;;;1.80;87.50;;;;;;5021576;28;20596;-73
2021/04/26 00:54:57;;;;;;;1.33;0.65;;;1.80;87.20;;;;;;5016647;28;20412;-74
2021/04/26 00:57:22;;;;;;;2.22;0.82;;;1.80;87.90;;;;;;5016708;28;20460;-74
2021/04/26 00:59:48;;;;;;;1.95;0.45;;;1.80;88.00;;;;;;5022248;28;21978;-74
2021/04/26 01:02:13;;;;;;;0.73;0.52;;;1.80;88.50;;;;;;5026975;28;20136;-74
2021/04/26 01:04:39;;;;;;;2.72;0.50;;;1.90;88.30;;;;;;5028772;28;20033;-74
2021/04/26 01:07:05;;;;;;;1.63;1.05;;;1.90;87.00;;;;;;5022895;28;20138;-75
2021/04/26 01:09:30;;;;;;;1.75;1.42;;;1.80;88.50;;;;;;5019215;28;20036;-74
2021/04/26 01:12:05;;;;;;;1.17;0.57;;;1.80;87.90;;;;;;5020357;28;20080;-74
2021/04/26 01:15:02;;;;;;;0.77;0.35;;;1.70;88.20;;;;;;5023581;28;20049;-74
2021/04/26 01:17:35;;;;;;;0.88;0.60;;;1.80;87.20;;;;;;5019395;28;20036;-74
2021/04/26 01:20:08;;;;;;;0.43;0.35;;;1.80;87.60;;;;;;5024826;28;20030;-74
2021/04/26 01:22:54;;;;;;;0.98;0.60;;;1.80;87.10;;;;;;5024348;28;20014;-74
2021/04/26 01:25:22;;;;;;;0.25;0.25;;;1.70;86.80;;;;;;5024568;28;20048;-74
2021/04/26 01:27:47;;;;;;;0.85;0.52;;;1.70;86.60;;;;;;5020794;28;20037;-74
2021/04/26 01:30:38;;;;;;;0.30;0.30;;;1.60;88.00;;;;;;5019704;28;20053;-74
2021/04/26 01:33:11;;;;;;;6.00;0.68;;;1.60;87.00;;;;;;5017388;28;20037;-74
2021/04/26 01:35:38;;;;;;;0.20;0.20;;;1.70;86.50;;;;;;5019057;28;20033;-74
2021/04/26 01:38:20;;;;;;;0.60;0.32;;;1.60;87.30;;;;;;5029096;28;20052;-74
2021/04/26 01:40:49;;;;;;;0.40;0.40;;;1.60;86.80;;;;;;5017390;28;20026;-74
2021/04/26 01:43:18;;;;;;;1.20;0.60;;;1.60;87.00;;;;;;5020096;28;20046;-75
2021/04/26 01:45:45;;;;;;;0.40;0.40;;;1.60;88.80;;;;;;5016648;28;20396;-75
2021/04/26 01:48:11;;;;;;;1.08;0.75;;;1.60;88.50;;;;;;5027830;28;20072;-75
2021/04/26 01:50:37;;;;;;;0.88;0.38;;;1.50;87.70;;;;;;5022513;28;20461;-75
2021/04/26 01:53:03;;;;;;;0.63;0.60;;;1.50;89.50;;;;;;5023663;28;20032;-74
2021/04/26 01:55:29;;;;;;;0.93;0.30;;;1.50;88.00;;;;;;5020640;28;20026;-75
2021/04/26 01:57:56;;;;;;;0.50;0.50;;;1.40;87.60;;;;;;5021343;28;20029;-74
2021/04/26 02:00:32;;;;;;;1.17;0.60;;;1.40;87.20;;;;;;5023878;28;20385;-75
2021/04/26 02:02:58;;;;;;;2.28;0.38;;;1.40;89.20;;;;;;5026275;28;20113;-75
2021/04/26 02:05:26;;;;;;;0.57;0.32;;;1.40;88.20;;;;;;5024818;28;20099;-75
2021/04/26 02:07:52;;;;;;;0.30;0.30;;;1.40;88.10;;;;;;5024955;28;20033;-75
2021/04/26 02:10:21;;;;;;;1.10;0.60;;;1.30;88.30;;;;;;5018319;28;20030;-75
2021/04/26 02:12:48;;;;;;;2.28;0.63;;;1.20;89.20;;;;;;5014330;28;20042;-75
2021/04/26 02:15:19;;;;;;;7.93;0.57;;;1.30;89.10;;;;;;5026986;28;20030;-74
2021/04/26 02:17:46;;;;;;;;;;;1.30;88.00;;;;;;5016464;28;20037;-74
2021/04/26 02:20:14;;;;;;;0.45;0.45;;;1.30;88.30;;;;;;5019322;28;19917;-75
2021/04/26 02:22:39;;;;;;;0.70;0.28;;;1.30;88.00;;;;;;5018463;28;20036;-74
2021/04/26 02:25:07;;;;;;;1.05;0.32;;;1.20;88.80;;;;;;5024035;28;20018;-75
2021/04/26 02:27:33;;;;;;;1.50;0.65;;;1.20;89.80;;;;;;5016907;28;20034;-74
2021/04/26 02:29:59;;;;;;;0.95;0.45;;;1.10;90.00;;;;;;5023261;28;20547;-74
2021/04/26 02:32:30;;;;;;;4.07;0.90;;;1.10;90.10;;;;;;5013591;28;20038;-74
2021/04/26 02:34:57;;;;;;;;;;;1.10;88.90;;;;;;5018076;28;20381;-76
2021/04/26 02:37:38;;;;;;;0.55;0.52;;;1.10;90.00;;;;;;5014276;28;19988;-75
2021/04/26 02:40:10;;;;;;;0.68;0.40;;;1.10;90.00;;;;;;5001321;28;20384;-75
2021/04/26 02:42:40;;;;;;;1.00;0.90;;;1.10;90.20;;;;;;5026324;28;20071;-74
2021/04/26 02:45:08;;;;;;;0.30;0.30;;;1.10;90.30;;;;;;5024286;28;20033;-75
2021/04/26 02:47:35;;;;;;;0.57;0.30;;;1.10;90.50;;;;;;5021098;28;20041;-74
2021/04/26 02:50:03;;;;;;;1.10;0.68;;;1.00;90.00;;;;;;5018288;28;20049;-75
2021/04/26 02:52:29;;;;;;;1.67;0.45;;;1.00;90.20;;;;;;5020881;28;20167;-75
2021/04/26 02:54:56;;;;;;;0.55;0.40;;;1.00;90.40;;;;;;5017297;28;21585;-75
2021/04/26 02:57:22;;;;;;;0.40;0.40;;;1.00;90.10;;;;;;5020840;28;20034;-75
2021/04/26 02:59:50;;;;;;;0.73;0.60;;;0.90;90.20;;;;;;5023656;28;20519;-75
2021/04/26 03:02:20;;;;;;;0.95;0.80;;;0.90;90.70;;;;;;5025070;28;20025;-75
2021/04/26 03:04:46;;;;;;;0.40;0.40;;;0.90;90.40;;;;;;5013240;28;20040;-75
2021/04/26 03:07:12;;;;;;;0.60;0.60;;;0.90;90.90;;;;;;5017350;28;20034;-74
2021/04/26 03:09:38;;;;;;;0.73;0.70;;;0.90;90.70;;;;;;5008897;28;20041;-75
2021/04/26 03:12:05;;;;;;;1.60;0.70;;;0.80;91.30;;;;;;5016041;28;20026;-75
2021/04/26 03:14:31;;;;;;;1.55;0.50;;;0.80;90.90;;;;;;5020472;28;20191;-74
2021/04/26 03:16:58;;;;;;;2.92;0.60;;;0.70;91.00;;;;;;5022346;28;20034;-75
2021/04/26 03:19:25;;;;;;;0.57;0.57;;;0.70;91.00;;;;;;5024168;28;20500;-75
2021/04/26 03:21:52;;;;;;;1.45;0.70;;;0.70;91.50;;;;;;5022943;28;20507;-75
2021/04/26 03:24:19;;;;;;;2.08;0.60;;;0.70;91.50;;;;;;5025138;28;20040;-75
2021/04/26 03:26:48;;;;;;;1.02;0.70;;;0.70;91.00;;;;;;5015946;28;20069;-75
2021/04/26 03:29:19;;;;;;;1.20;0.57;;;0.70;91.40;;;;;;5029931;28;20034;-74
2021/04/26 03:31:46;;;;;;;3.53;1.05;;;0.60;91.10;;;;;;5024123;28;20096;-75
2021/04/26 03:34:13;;;;;;;0.60;0.40;;;0.60;91.70;;;;;;5000828;28;20121;-75
2021/04/26 03:36:40;;;;;;;0.52;0.52;;;0.60;91.90;;;;;;5025829;28;20037;-74
2021/04/26 03:39:09;;;;;;;2.38;0.77;;;0.50;92.10;;;;;;5025861;28;20475;-74
2021/04/26 03:41:36;;;;;;;1.58;0.93;;;0.60;92.20;;;;;;5024044;28;20025;-74
2021/04/26 03:44:11;;;;;;;0.88;0.60;;;0.60;91.50;;;;;;5027842;28;20022;-74
2021/04/26 03:46:48;;;;;;;0.32;0.32;;;0.50;92.30;;;;;;5020204;28;20022;-73
2021/04/26 03:49:14;;;;;;;1.52;0.90;;;0.60;92.00;;;;;;5015397;28;20485;-74
2021/04/26 03:51:39;;;;;;;0.75;0.68;;;0.50;92.10;;;;;;5024392;28;20106;-74
2021/04/26 03:54:05;;;;;;;0.60;0.43;;;0.50;92.20;;;;;;5018048;28;20021;-74
2021/04/26 03:56:30;;;;;;;2.42;0.47;;;0.50;92.40;;;;;;5014069;28;20480;-74
2021/04/26 03:58:56;;;;;;;0.50;0.50;;;0.50;92.50;;;;;;5024181;28;20511;-75
2021/04/26 04:01:21;;;;;;;1.20;0.77;;;0.50;93.00;;;;;;5019855;28;20431;-74
2021/04/26 04:03:47;;;;;;;0.80;0.43;;;0.60;92.40;;;;;;5025376;28;20113;-74
2021/04/26 04:06:12;;;;;;;1.98;0.52;;;0.50;92.40;;;;;;5024023;28;20034;-74
2021/04/26 04:08:38;;;;;;;0.52;0.52;;;0.50;93.30;;;;;;5017154;28;20034;-74
2021/04/26 04:11:03;;;;;;;0.30;0.30;;;0.50;93.20;;;;;;5020901;28;20511;-74
2021/04/26 04:13:29;;;;;;;0.50;0.50;;;0.60;93.20;;;;;;5029112;28;20024;-74
2021/04/26 04:15:54;;;;;;;1.10;0.73;;;0.60;93.10;;;;;;5026025;28;20044;-74
2021/04/26 04:18:20;;;;;;;0.50;0.35;;;0.60;92.80;;;;;;5020830;28;20401;-74
2021/04/26 04:20:45;;;;;;;1.17;0.40;;;0.70;92.70;;;;;;5018985;28;20029;-74
2021/04/26 04:23:10;;;;;;;4.93;0.75;;;0.70;93.20;;;;;;5019186;28;20517;-74
2021/04/26 04:25:36;;;;;;;1.63;0.50;;;0.70;93.20;;;;;;5018072;28;20040;-75
2021/04/26 04:28:02;;;;;;;0.80;0.52;;;0.70;92.70;;;;;;5021367;28;20026;-74
2021/04/26 04:30:27;;;;;;;1.23;0.68;;;0.80;93.30;;;;;;5023174;28;20116;-71
2021/04/26 04:32:53;;;;;;;2.17;1.10;;;0.80;92.90;;;;;;5012851;28;20040;-73
2021/04/26 04:35:18;;;;;;;0.45;0.45;;;0.80;93.50;;;;;;5019154;28;20120;-73
2021/04/26 04:37:43;;;;;;;3.88;0.73;;;0.90;93.40;;;;;;5008239;28;20112;-73
2021/04/26 04:40:09;;;;;;;0.40;0.40;;;0.90;93.60;;;;;;5026412;28;20396;-72
2021/04/26 04:42:35;;;;;;;1.67;0.88;;;0.90;93.60;;;;;;5021835;28;20048;-73
2021/04/26 04:45:00;;;;;;;1.33;0.65;;;1.10;92.20;;;;;;5017394;28;20091;-73
2021/04/26 04:47:26;;;;;;;6.32;0.88;;;1.30;92.20;;;;;;5012264;28;20022;-73
2021/04/26 04:49:51;;;;;;;1.15;0.57;;;1.40;92.40;;;;;;5017042;28;20096;-73
2021/04/26 04:52:17;;;;;;;0.85;0.85;;;1.30;93.20;;;;;;5017101;28;20483;-73
2021/04/26 04:54:42;;;;;;;4.10;0.73;;;1.30;93.80;;;;;;5025687;28;20026;-73
2021/04/26 04:57:08;;;;;;;1.38;0.93;;;1.30;92.90;;;;;;5018236;28;20057;-73
2021/04/26 04:59:34;;;;;;;1.95;1.40;;;1.40;93.80;;;;;;5018013;28;20025;-74
2021/04/26 05:02:00;;;;;;;0.73;0.43;;;1.40;94.10;;;;;;5021551;28;20044;-73
2021/04/26 05:04:25;;;;;;;1.20;0.95;;;1.40;92.90;;;;;;5019375;28;20029;-74
2021/04/26 05:06:52;;;;;;;3.70;0.75;;;1.60;92.00;;;;;;5018212;28;20034;-79
2021/04/26 05:09:18;;;;;;;1.70;1.05;;;1.60;92.20;;;;;;5023150;28;20026;-74
2021/04/26 05:11:45;;;;;;;1.27;0.55;;;1.70;92.80;;;;;;5016177;28;20021;-73
2021/04/26 05:14:11;;;;;;;5.05;0.80;;;1.80;92.40;;;;;;5021089;28;20475;-76
2021/04/26 05:16:36;;;;;;;0.35;0.35;;;1.90;92.20;;;;;;5022054;28;20087;-75
2021/04/26 05:19:02;;;;;;;0.40;0.40;;;2.00;91.50;;;;;;5005313;28;20026;-76
2021/04/26 05:21:28;;;;;;;0.93;0.93;;;2.20;91.40;;;;;;5020861;28;20026;-76
2021/04/26 05:23:55;;;;;;;0.30;0.30;;;2.30;91.60;;;;;;5022080;28;20109;-75
2021/04/26 05:26:21;;;;;;;0.30;0.30;;;2.40;90.90;;;;;;5016805;28;20037;-74
2021/04/26 05:28:55;;;;;;;3.08;0.52;;;2.50;90.70;;;;;;5019810;28;20029;-73
2021/04/26 05:31:21;;;;;;;0.52;0.52;;;2.60;89.20;;;;;;5020233;28;20025;-74
2021/04/26 05:33:47;;;;;;;0.98;0.65;;;2.80;86.20;;;;;;5019747;28;20029;-73
2021/04/26 05:36:12;;;;;;;1.40;0.70;;;2.90;88.60;;;;;;5020280;28;20026;-72
2021/04/26 05:38:38;;;;;;;1.05;0.60;;;2.90;86.80;;;;;;5025894;28;20033;-78
2021/04/26 05:41:06;;;;;;;0.85;0.45;;;3.10;85.30;;;;;;5021215;28;20049;-75
2021/04/26 05:43:32;;;;;;;7.28;0.63;;;3.30;84.50;;;;;;5016044;28;20500;-74
2021/04/26 05:45:57;;;;;;;0.57;0.40;;;3.30;84.10;;;;;;5014218;28;20060;-74
2021/04/26 05:48:23;;;;;;;2.78;0.88;;;3.40;84.80;;;;;;5017375;28;20101;-74
2021/04/26 05:50:50;;;;;;;3.65;1.00;;;3.50;83.00;;;;;;5022193;28;20042;-75
2021/04/26 05:53:15;;;;;;;0.95;0.55;;;3.60;83.00;;;;;;5023404;28;20488;-74
2021/04/26 05:55:41;;;;;;;0.77;0.52;;;3.70;82.20;;;;;;5022497;28;20044;-75
2021/04/26 05:58:06;;;;;;;0.47;0.40;;;3.70;83.40;;;;;;5025378;28;20127;-74
2021/04/26 06:00:34;;;;;;;5.03;0.60;;;3.70;82.90;;;;;;5021016;28;20024;-72
2021/04/26 06:03:00;;;;;;;7.05;0.80;;;3.80;84.40;;;;;;5016461;28;20030;-76
2021/04/26 06:05:26;;;;;;;1.33;0.63;;;3.80;83.40;;;;;;5028080;28;20044;-75
2021/04/26 06:07:52;;;;;;;1.85;0.60;;;3.90;83.50;;;;;;5018167;28;20056;-75
2021/04/26 06:10:17;;;;;;;0.30;0.30;;;4.00;82.00;;;;;;5012322;28;20026;-74
2021/04/26 06:12:43;;;;;;;0.45;0.40;;;4.10;82.70;;;;;;5022234;28;20032;-74
2021/04/26 06:15:08;;;;;;;0.30;0.30;;;4.20;82.70;;;;;;5018831;28;20091;-73
2021/04/26 06:17:34;;;;;;;0.50;0.50;;;4.30;82.90;;;;;;5014361;28;20104;-74
2021/04/26 06:20:00;;;;;;;1.20;0.70;;;4.40;83.00;;;;;;5018477;28;20033;-74
2021/04/26 06:22:26;;;;;;;2.05;1.38;;;4.50;82.10;;;;;;5020545;28;20025;-74
2021/04/26 06:24:51;;;;;;;1.13;0.60;;;4.60;83.00;;;;;;5008698;28;20109;-74
2021/04/26 06:27:17;;;;;;;3.15;1.02;;;4.70;81.70;;;;;;5009118;28;20393;-74
2021/04/26 06:29:42;;;;;;;1.05;0.40;;;4.80;81.20;;;;;;5014979;28;20058;-80
2021/04/26 06:32:08;;;;;;;0.40;0.40;;;4.80;79.30;;;;;;5019590;28;20021;-74
2021/04/26 06:34:34;;;;;;;0.45;0.45;;;4.80;79.50;;;;;;5015748;28;20505;-75
2021/04/26 06:37:03;;;;;;;1.17;0.63;;;4.90;80.00;;;;;;5015307;28;20042;-75
2021/04/26 06:39:35;;;;;;;0.63;0.57;;;5.00;80.70;;;;;;5012312;28;20535;-75
2021/04/26 06:42:19;;;;;;;2.45;0.65;;;5.10;80.30;;;;;;5014779;28;20040;-75
2021/04/26 06:44:45;;;;;;;0.88;0.52;;;5.20;79.90;;;;;;5021855;28;20033;-75
2021/04/26 06:47:11;;;;;;;13.05;0.80;;;5.20;78.10;;;;;;5023220;28;20056;-75
2021/04/26 06:49:37;;;;;;;1.45;0.50;;;5.30;76.30;;;;;;5023714;28;20036;-75
2021/04/26 06:52:02;;;;;;;0.45;0.45;;;5.40;76.10;;;;;;5025635;28;20125;-75
2021/04/26 06:54:28;;;;;;;0.52;0.35;;;5.40;76.00;;;;;;5027263;28;20025;-75
2021/04/26 06:56:53;;;;;;;0.40;0.30;;;5.50;76.90;;;;;;5028333;28;20032;-75
2021/04/26 06:59:19;;;;;;;0.40;0.40;;;5.60;76.00;;;;;;5028031;28;20041;-83
2021/04/26 07:01:45;;;;;;;0.50;0.50;;;5.70;75.70;;;;;;5018538;28;20240;-75
2021/04/26 07:04:10;;;;;;;0.60;0.38;;;5.80;74.00;;;;;;5023772;28;20029;-75
2021/04/26 07:06:36;;;;;;;1.25;0.85;;;5.80;73.70;;;;;;5027167;28;20121;-76
2021/04/26 07:09:02;;;;;;;0.38;0.38;;;5.90;75.00;;;;;;5011343;28;20017;-74
2021/04/26 07:11:27;;;;;;;4.97;0.77;;;6.00;72.60;;;;;;5006756;28;20021;-74
2021/04/26 07:13:53;;;;;;;0.82;0.50;;;6.10;71.20;;;;;;5027602;28;20037;-74
2021/04/26 07:16:18;;;;;;;0.50;0.50;;;6.20;69.50;;;;;;5027103;28;20465;-73
2021/04/26 07:18:44;;;;;;;1.05;0.55;;;6.20;68.10;;;;;;5026425;28;20080;-74
2021/04/26 07:21:10;;;;;;;1.65;0.40;;;6.30;68.10;;;;;;5026324;28;20112;-74
2021/04/26 07:23:35;;;;;;;0.40;0.35;;;6.40;66.50;;;;;;5026913;28;20049;-73
2021/04/26 07:26:01;;;;;;;1.52;0.35;;;6.50;66.10;;;;;;5025911;28;20124;-75
2021/04/26 07:28:27;;;;;;;0.52;0.43;;;6.50;65.70;;;;;;5026087;28;20066;-77
2021/04/26 07:30:56;;;;;;;2.92;0.45;;;6.60;65.80;;;;;;5025927;28;20478;-72
2021/04/26 07:33:21;;;;;;;0.63;0.55;;;6.70;65.90;;;;;;5027473;28;20621;-72
2021/04/26 07:35:54;;;;;;;0.57;0.40;;;6.70;63.50;;;;;;5009038;28;20029;-73
2021/04/26 07:38:20;;;;;;;1.25;0.52;;;6.80;64.30;;;;;;5024761;28;20025;-74
2021/04/26 07:40:46;;;;;;;0.55;0.32;;;6.90;64.40;;;;;;5026217;28;20025;-73
2021/04/26 07:43:11;;;;;;;0.47;0.30;;;6.90;62.30;;;;;;5026272;28;20049;-71
2021/04/26 07:45:37;;;;;;;0.45;0.45;;;7.00;63.10;;;;;;5024802;28;20045;-71
2021/04/26 07:48:03;;;;;;;0.30;0.30;;;7.10;61.60;;;;;;5025687;28;20028;-74
2021/04/26 07:50:28;;;;;;;1.17;0.43;;;7.10;61.30;;;;;;5027709;28;20076;-72
2021/04/26 07:52:54;;;;;;;0.35;0.32;;;7.20;60.40;;;;;;5015893;28;20162;-73
2021/04/26 07:55:19;;;;;;;1.33;1.00;;;7.30;60.30;;;;;;5022559;28;20403;-74
2021/04/26 07:57:45;;;;;;;1.27;0.50;;;7.40;60.80;;;;;;5023541;28;20036;-73
2021/04/26 08:00:11;;;;;;;1.25;0.30;;;7.40;58.10;;;;;;5022618;28;20025;-73
2021/04/26 08:02:37;;;;;;;0.40;0.40;;;7.50;59.40;;;;;;5024475;28;20041;-73
2021/04/26 08:05:04;;;;;;;2.75;0.57;;;7.50;59.50;;;;;;5026039;28;20454;-75
2021/04/26 08:07:29;;;;;;;1.27;0.57;;;7.60;58.90;;;;;;5023625;28;20065;-74
2021/04/26 08:09:54;;;;;;;1.40;0.43;;;7.80;58.40;;;;;;5026317;28;20484;-73
2021/04/26 08:12:20;;;;;;;0.45;0.40;;;7.90;58.60;;;;;;5024881;28;20036;-73
2021/04/26 08:14:47;;;;;;;3.00;0.80;;;8.00;57.30;;;;;;5025148;28;20026;-75
2021/04/26 08:17:12;;;;;;;0.52;0.50;;;8.00;57.10;;;;;;5023905;28;20025;-74
2021/04/26 08:19:38;;;;;;;1.85;0.77;;;8.00;56.10;;;;;;5026231;28;21305;-73
2021/04/26 08:22:04;;;;;;;1.55;0.82;;;8.20;57.20;;;;;;5022659;28;20407;-73
2021/04/26 08:24:29;;;;;;;0.82;0.40;;;8.20;57.10;;;;;;5022670;28;20040;-73
2021/04/26 08:26:56;;;;;;;12.50;1.15;;;8.30;56.90;;;;;;5022810;28;20032;-73
2021/04/26 08:29:22;;;;;;;0.85;0.43;;;8.40;57.50;;;;;;5005286;28;20613;-75
2021/04/26 08:31:48;;;;;;;0.30;0.30;;;8.60;57.50;;;;;;5023838;28;20120;-73
2021/04/26 08:34:13;;;;;;;0.90;0.55;;;8.60;55.00;;;;;;5023091;28;20463;-73
2021/04/26 08:36:39;;;;;;;0.68;0.68;;;8.70;54.30;;;;;;5025013;28;20029;-74
2021/04/26 08:39:05;;;;;;;0.40;0.30;;;8.90;55.60;;;;;;5021452;28;20034;-75
2021/04/26 08:41:32;;;;;;;3.50;0.47;;;9.00;53.20;;;;;;5025307;28;20427;-74
2021/04/26 08:43:58;;;;;;;1.27;0.40;;;9.20;53.30;;;;;;5023065;28;20022;-74
2021/04/26 08:46:23;;;;;;;0.98;0.50;;;9.30;52.10;;;;;;5022775;28;20040;-73
2021/04/26 08:48:49;;;;;;;1.30;0.50;;;9.40;51.40;;;;;;5004693;28;20581;-73
2021/04/26 08:51:14;;;;;;;1.15;0.57;;;9.50;51.20;;;;;;5024591;28;20076;-73
2021/04/26 08:53:42;;;;;;;3.47;1.17;;;9.50;53.20;;;;;;5021399;28;20040;-73
2021/04/26 08:56:09;;;;;;;4.95;0.73;;;9.60;50.00;;;;;;5015898;28;20128;-74
2021/04/26 08:58:35;;;;;;;0.77;0.50;;;9.50;50.20;;;;;;5021774;28;20072;-74
2021/04/26 09:01:01;;;;;;;3.75;0.93;;;9.60;51.70;;;;;;5025969;28;20036;-74
2021/04/26 09:03:36;;;;;;;9.20;0.50;;;9.60;50.90;;;;;;5021991;28;20033;-74
2021/04/26 09:06:02;;;;;;;0.30;0.30;;;9.60;50.20;;;;;;5019434;28;20603;-74
2021/04/26 09:08:30;;;;;;;0.80;0.40;;;9.70;49.20;;;;;;5023513;28;20047;-73
2021/04/26 09:11:04;;;;;;;17.77;1.05;;;9.80;50.00;;;;;;5022744;28;20071;-77
2021/04/26 09:13:55;;;;;;;2.50;0.28;;;9.90;50.40;;;;;;5024341;28;20099;-75
2021/04/26 09:16:25;;;;;;;2.55;1.10;;;10.00;49.80;;;;;;5024621;28;20034;-75
2021/04/26 09:19:02;;;;;;;6.95;0.70;;;10.20;50.70;;;;;;5024347;28;20479;-73
2021/04/26 09:21:33;;;;;;;1.83;0.57;;;10.50;50.90;;;;;;5025541;28;20700;-73
2021/04/26 09:24:11;;;;;;;1.35;0.45;;;10.60;50.30;;;;;;5014730;28;21153;-73
2021/04/26 09:26:36;;;;;;;6.22;0.75;;;10.70;48.00;;;;;;5020233;28;20040;-73
2021/04/26 09:29:16;;;;;;;1.23;0.40;;;10.80;49.40;;;;;;5022649;28;20029;-73
2021/04/26 09:31:57;;;;;;;0.38;0.25;;;11.20;52.20;;;;;;5023764;28;20032;-73
2021/04/26 09:34:43;;;;;;;0.43;0.40;;;11.40;47.50;;;;;;5021398;28;20029;-74
2021/04/26 09:37:28;;;;;;;0.55;0.55;;;11.30;46.30;;;;;;5023169;28;20033;-76
2021/04/26 09:40:07;;;;;;;0.65;0.35;;;11.50;46.40;;;;;;5021647;28;20040;-77
2021/04/26 09:42:44;;;;;;;2.60;0.50;;;11.50;46.00;;;;;;5023321;28;20044;-72
2021/04/26 09:45:35;;;;;;;0.30;0.30;;;11.60;46.80;;;;;;5019324;28;20568;-71
2021/04/26 09:48:15;;;;;;;0.77;0.43;;;11.60;45.90;;;;;;5025286;28;20500;-74
2021/04/26 09:50:54;;;;;;;0.40;0.40;;;11.60;48.10;;;;;;5022622;28;20053;-73
2021/04/26 09:53:39;;;;;;;2.58;0.30;;;11.60;46.60;;;;;;5024123;28;20013;-73
2021/04/26 09:56:14;;;;;;;0.35;0.30;;;11.70;49.10;;;;;;5021199;28;20107;-73
2021/04/26 09:58:41;;;;;;;0.57;0.30;;;11.70;48.10;;;;;;5013865;28;20400;-73
2021/04/26 10:01:06;;;;;;;0.93;0.50;;;11.80;48.60;;;;;;5015806;28;20064;-73
2021/04/26 10:03:32;;;;;;;3.55;0.40;;;11.70;47.70;;;;;;5002810;28;20468;-73
2021/04/26 10:06:00;;;;;;;0.60;0.40;;;11.50;47.50;;;;;;5025718;28;20040;-73
2021/04/26 10:08:26;;;;;;;3.08;0.30;;;11.40;48.40;;;;;;5024938;28;20025;-73
2021/04/26 10:10:52;;;;;;;2.00;0.50;;;11.20;47.90;;;;;;5023534;28;20067;-73
2021/04/26 10:13:22;;;;;;;0.50;0.40;;;11.10;47.10;;;;;;5022221;28;20053;-75
2021/04/26 10:15:56;;;;;;;0.70;0.40;;;11.10;46.00;;;;;;5024647;28;20028;-75
2021/04/26 10:18:33;;;;;;;0.45;0.40;;;11.00;48.30;;;;;;5023827;28;20354;-73
2021/04/26 10:20:58;;;;;;;1.40;0.95;;;11.10;49.40;;;;;;5022854;28;20044;-73
2021/04/26 10:23:33;;;;;;;0.30;0.30;;;11.00;46.70;;;;;;5025229;28;20426;-75
2021/04/26 10:25:59;;;;;;;1.30;0.75;;;11.00;45.00;;;;;;5021313;28;20026;-74
2021/04/26 10:28:37;;;;;;;1.33;0.70;;;11.10;46.90;;;;;;5024431;28;20021;-74
2021/04/26 10:31:15;;;;;;;6.95;0.50;;;11.20;47.00;;;;;;5023758;28;20120;-74
2021/04/26 10:33:56;;;;;;;0.65;0.35;;;11.30;45.60;;;;;;5022843;28;20021;-74
2021/04/26 10:36:41;;;;;;;0.35;0.30;;;11.50;44.70;;;;;;5015838;28;20026;-74
2021/04/26 10:39:08;;;;;;;2.40;0.32;;;11.70;46.40;;;;;;5015024;28;20034;-74
2021/04/26 10:41:56;;;;;;;1.27;0.50;;;11.70;44.20;;;;;;5022446;28;20112;-73
2021/04/26 10:44:40;;;;;;;8.10;0.50;;;11.70;43.10;;;;;;5021831;28;20044;-74
2021/04/26 10:47:23;;;;;;;0.40;0.40;;;11.60;42.60;;;;;;5023600;28;20083;-74
2021/04/26 10:49:51;;;;;;;3.47;0.68;;;11.70;41.70;;;;;;5024717;28;20568;-73
2021/04/26 10:52:29;;;;;;;0.40;0.40;;;12.00;42.80;;;;;;5021964;28;20025;-73
2021/04/26 10:54:55;;;;;;;0.68;0.30;;;12.10;42.70;;;;;;5022344;28;20026;-74
2021/04/26 10:57:42;;;;;;;2.17;0.60;;;12.50;43.50;;;;;;5015683;28;20112;-73
2021/04/26 11:00:25;;;;;;;0.40;0.40;;;13.00;42.20;;;;;;5023007;28;20041;-73
2021/04/26 11:03:12;;;;;;;0.90;0.50;;;13.60;43.80;;;;;;5021188;28;20034;-73
2021/04/26 11:05:52;;;;;;;0.63;0.38;;;13.90;40.70;;;;;;5010673;28;20060;-73
2021/04/26 11:08:38;;;;;;;0.68;0.40;;;14.00;41.00;;;;;;5025536;28;20041;-73
2021/04/26 11:11:14;;;;;;;0.32;0.30;;;13.90;40.10;;;;;;5020023;28;20025;-73
2021/04/26 11:14:01;;;;;;;0.40;0.40;;;13.70;37.90;;;;;;5024335;28;20499;-72
2021/04/26 11:16:38;;;;;;;0.40;0.40;;;13.50;41.10;;;;;;5024967;28;20052;-73
2021/04/26 11:19:12;;;;;;;0.82;0.40;;;13.20;41.10;;;;;;5016653;28;20033;-73
2021/04/26 11:21:43;;;;;;;3.20;0.50;;;13.00;41.30;;;;;;5021853;28;20037;-74
2021/04/26 11:24:22;;;;;;;1.55;0.57;;;12.80;41.80;;;;;;5021997;28;20384;-73
2021/04/26 11:27:10;;;;;;;1.48;0.70;;;12.90;42.40;;;;;;5020433;28;20124;-73
2021/04/26 11:29:47;;;;;;;0.35;0.30;;;13.00;42.80;;;;;;5018912;28;20032;-73
2021/04/26 11:32:17;;;;;;;2.70;0.80;;;13.00;42.80;;;;;;5017208;28;20151;-73
2021/04/26 11:34:49;;;;;;;1.58;0.45;;;13.20;43.10;;;;;;5022822;28;20072;-74
2021/04/26 11:37:16;;;;;;;4.78;0.30;;;13.70;41.40;;;;;;5024775;28;20091;-74
2021/04/26 11:39:42;;;;;;;2.67;0.65;;;13.80;41.10;;;;;;5026370;28;20045;-73
2021/04/26 11:42:09;;;;;;;2.63;0.50;;;13.80;41.30;;;;;;5019731;28;20026;-73
2021/04/26 11:44:37;;;;;;;1.20;0.47;;;13.60;38.70;;;;;;5028920;28;20193;-74
2021/04/26 11:47:08;;;;;;;1.88;0.50;;;13.40;38.70;;;;;;5028510;28;20563;-73
2021/04/26 11:49:35;;;;;;;1.77;0.50;;;13.20;40.70;;;;;;5028559;28;20108;-75
2021/04/26 11:52:43;;;;;;;0.22;0.22;;;12.80;41.80;;;;;;5019946;28;22294;-75
2021/04/26 11:55:12;;;;;;;0.98;0.82;;;12.70;42.70;;;;;;5027929;28;20061;-75
2021/04/26 11:57:40;;;;;;;1.85;0.55;;;12.50;43.30;;;;;;5018006;28;20057;-75
2021/04/26 12:00:15;;;;;;;0.52;0.32;;;12.50;43.50;;;;;;5029081;28;20123;-75
2021/04/26 12:02:44;;;;;;;0.45;0.45;;;12.60;43.00;;;;;;5023730;28;20065;-75
2021/04/26 12:05:26;;;;;;;0.30;0.30;;;12.70;42.50;;;;;;5029263;28;20082;-75
2021/04/26 12:07:53;;;;;;;7.30;0.70;;;12.80;42.50;;;;;;5021306;28;20228;-76
2021/04/26 12:10:30;;;;;;;0.63;0.63;;;12.70;40.90;;;;;;5028506;28;20032;-76
2021/04/26 12:13:00;;;;;;;5.13;0.57;;;12.90;40.70;;;;;;5028297;28;20030;-75
2021/04/26 12:15:26;;;;;;;2.63;0.60;;;14.10;39.30;;;;;;5018401;28;20026;-75
2021/04/26 12:17:56;;;;;;;1.27;0.50;;;15.70;37.90;;;;;;5027537;28;20334;-74
2021/04/26 12:20:31;;;;;;;4.00;0.50;;;17.30;36.00;;;;;;5025288;28;20033;-77
2021/04/26 12:23:02;;;;;;;2.33;0.40;;;17.90;33.90;;;;;;5024810;28;20029;-73
2021/04/26 12:25:33;;;;;;;0.65;0.60;;;17.60;31.70;;;;;;5020510;28;20040;-73
2021/04/26 12:28:02;;;;;;;4.40;0.40;;;17.10;33.80;;;;;;5005451;28;20091;-72
2021/04/26 12:30:28;;;;;;;15.25;0.60;;;16.50;32.60;;;;;;5024776;28;20030;-73
2021/04/26 12:32:55;;;;;;;3.83;0.47;;;16.20;32.70;;;;;;5026469;28;20495;-72
2021/04/26 12:35:28;;;;;;;1.48;0.50;;;15.70;34.00;;;;;;5025988;28;20029;-72
2021/04/26 12:37:55;;;;;;;0.70;0.63;;;15.30;35.90;;;;;;5023464;28;20053;-72
2021/04/26 12:40:29;;;;;;;0.60;0.60;;;14.80;37.60;;;;;;5023918;28;20042;-72
2021/04/26 12:42:57;;;;;;;0.80;0.47;;;14.40;37.30;;;;;;5023384;28;20491;-72
2021/04/26 12:45:26;;;;;;;5.88;0.60;;;13.90;38.40;;;;;;5024459;28;20030;-73
2021/04/26 12:47:58;;;;;;;0.80;0.60;;;13.50;39.70;;;;;;5025285;28;20091;-73
2021/04/26 12:50:34;;;;;;;3.33;0.40;;;13.40;39.80;;;;;;5024468;28;20043;-72
2021/04/26 12:53:19;;;;;;;0.30;0.30;;;13.40;39.30;;;;;;5023657;28;20026;-72
2021/04/26 12:55:55;;;;;;;1.20;0.80;;;13.40;40.40;;;;;;5021406;28;20033;-72
2021/04/26 12:58:36;;;;;;;0.40;0.40;;;13.50;42.30;;;;;;5025325;28;20260;-73
2021/04/26 13:01:03;;;;;;;3.85;0.40;;;13.50;41.70;;;;;;5020482;28;20033;-72
2021/04/26 13:03:28;;;;;;;2.60;0.40;;;13.40;39.60;;;;;;5017748;28;20040;-72
2021/04/26 13:05:57;;;;;;;0.70;0.50;;;13.30;40.40;;;;;;5018099;28;20414;-73